createdAt,value
2023-03-23T15:58:43.108Z,95964.44
2023-03-23T16:01:19.711Z,95953.22
2023-03-23T16:03:57.764Z,95954.81
2023-03-23T16:06:27.577Z,95960.72
2023-03-23T16:08:55.925Z,95955.34
2023-03-23T16:11:25.494Z,95963.34
2023-03-23T16:13:53.125Z,95957.47
2023-03-23T16:16:45.799Z,95953.22
2023-03-23T16:19:16.148Z,95970.56
2023-03-23T16:21:43.116Z,95957.78
2023-03-23T16:24:10.621Z,95964.97
2023-03-23T16:26:40.335Z,95969.50
2023-03-23T16:29:22.290Z,95973.81
2023-03-23T16:31:55.922Z,95969.78
2023-03-23T16:34:23.072Z,95970.31
2023-03-23T16:36:49.900Z,95963.63
2023-03-23T16:39:18.989Z,95968.16
2023-03-23T16:41:46.060Z,95967.09
2023-03-23T16:44:13.288Z,95964.94
2023-03-23T16:46:40.357Z,95968.09
2023-03-23T16:49:07.211Z,95973.97
2023-03-23T16:51:34.091Z,95976.66
2023-03-23T16:54:00.966Z,95976.66
2023-03-23T16:56:27.943Z,95978.03
2023-03-23T16:58:54.779Z,95978.25
2023-03-23T17:01:21.677Z,95986.75
2023-03-23T17:03:48.539Z,95974.47
2023-03-23T17:06:16.122Z,95987.75
2023-03-23T17:08:43.003Z,95971.81
2023-03-23T17:11:11.387Z,95978.75
2023-03-23T17:13:39.020Z,95972.59
2023-03-23T17:16:06.917Z,95976.06
2023-03-23T17:18:33.790Z,95982.97
2023-03-23T17:21:00.671Z,95985.94
2023-03-23T17:23:27.590Z,95988.28
2023-03-23T17:25:54.549Z,95991.72
2023-03-23T17:28:21.814Z,95986.34
2023-03-23T17:30:49.015Z,95987.16
2023-03-23T17:33:15.937Z,95986.38
2023-03-23T17:35:46.116Z,95989.56
2023-03-23T17:38:13.221Z,95989.78
2023-03-23T17:40:40.085Z,95980.44
2023-03-23T17:43:07.035Z,95985.94
2023-03-23T17:45:34.062Z,95989.56
2023-03-23T17:48:01.144Z,95992.78
2023-03-23T17:50:28.098Z,95994.31
2023-03-23T17:52:57.013Z,95998.78
2023-03-23T17:55:24.066Z,95995.34
2023-03-23T17:57:51.048Z,95993.66
2023-03-23T18:00:18.655Z,95997.97
2023-03-23T18:02:45.579Z,95994.47
2023-03-23T18:05:12.869Z,96005.25
2023-03-23T18:07:39.829Z,95993.75
2023-03-23T18:10:12.384Z,96003.72
2023-03-23T18:12:40.876Z,96007.88
2023-03-23T18:15:09.084Z,96002.63
2023-03-23T18:17:36.153Z,96003.72
2023-03-23T18:20:04.779Z,95999.41
2023-03-23T18:22:31.664Z,96004.72
2023-03-23T18:24:58.808Z,96011.84
2023-03-23T18:27:26.147Z,96011.03
2023-03-23T18:29:53.027Z,96009.94
2023-03-23T18:32:20.648Z,96008.00
2023-03-23T18:34:48.619Z,96013.13
2023-03-23T18:37:15.942Z,96018.16
2023-03-23T18:39:42.919Z,96022.09
2023-03-23T18:42:09.855Z,96022.19
2023-03-23T18:44:37.221Z,96012.63
2023-03-23T18:47:04.240Z,96014.25
2023-03-23T18:49:33.496Z,96016.41
2023-03-23T18:52:00.927Z,96031.91
2023-03-23T18:54:28.949Z,96023.94
2023-03-23T18:57:00.373Z,96019.19
2023-03-23T18:59:30.488Z,96025.97
2023-03-23T19:01:58.008Z,96013.28
2023-03-23T19:04:25.447Z,96021.94
2023-03-23T19:06:52.644Z,96024.88
2023-03-23T19:09:19.586Z,96021.28
2023-03-23T19:11:47.430Z,96024.59
2023-03-23T19:14:14.583Z,96018.78
2023-03-23T19:16:41.986Z,96029.34
2023-03-23T19:19:09.165Z,96023.44
2023-03-23T19:21:40.332Z,96025.53
2023-03-23T19:24:08.265Z,96026.59
2023-03-23T19:26:39.193Z,96018.63
2023-03-23T19:31:39.002Z,96024.53
2023-03-23T19:34:06.665Z,96027.81
2023-03-23T19:36:33.620Z,96021.34
2023-03-23T19:39:02.610Z,96023.28
2023-03-23T19:41:31.120Z,96026.22
2023-03-23T19:43:59.378Z,96021.56
2023-03-23T19:46:29.046Z,96024.16
2023-03-23T19:48:57.534Z,96032.19
2023-03-23T19:51:24.637Z,96024.66
2023-03-23T19:53:51.975Z,96030.47
2023-03-23T19:56:24.082Z,96036.28
2023-03-23T19:58:51.325Z,96017.63
2023-03-23T20:01:18.910Z,96028.19
2023-03-23T20:03:46.574Z,96024.47
2023-03-23T20:06:15.375Z,96022.31
2023-03-23T20:08:45.653Z,96024.94
2023-03-23T20:11:17.019Z,96022.81
2023-03-23T20:13:45.994Z,96028.13
2023-03-23T20:16:12.882Z,96018.81
2023-03-23T20:18:40.983Z,96023.78
2023-03-23T20:21:12.221Z,96024.84
2023-03-23T20:23:41.535Z,96009.94
2023-03-23T20:26:15.851Z,96025.28
2023-03-23T20:28:43.367Z,96027.84
2023-03-23T20:31:26.701Z,96026.72
2023-03-23T20:34:03.369Z,96025.28
2023-03-23T20:36:38.279Z,96022.88
2023-03-23T20:39:14.112Z,96028.69
2023-03-23T20:41:43.403Z,96033.03
2023-03-23T20:44:15.748Z,96031.91
2023-03-23T20:46:48.339Z,96038.81
2023-03-23T20:49:16.100Z,96034.00
2023-03-23T20:51:45.004Z,96032.63
2023-03-23T20:54:15.820Z,96032.09
2023-03-23T20:56:47.676Z,96033.06
2023-03-23T20:59:15.556Z,96025.81
2023-03-23T21:01:43.563Z,96029.84
2023-03-23T21:04:19.852Z,96031.13
2023-03-23T21:06:51.884Z,96025.50
2023-03-23T21:09:19.597Z,96026.50
2023-03-23T21:11:47.146Z,96024.06
2023-03-23T21:14:14.984Z,96016.03
2023-03-23T21:16:42.623Z,96011.78
2023-03-23T21:19:10.320Z,96025.03
2023-03-23T21:21:42.255Z,96017.81
2023-03-23T21:24:28.967Z,96015.88
2023-03-23T21:26:59.419Z,96014.69
2023-03-23T21:29:27.470Z,96014.63
2023-03-23T21:32:07.781Z,96011.38
2023-03-23T21:34:36.899Z,96009.72
2023-03-23T21:37:03.971Z,96002.22
2023-03-23T21:39:30.846Z,96007.78
2023-03-23T21:41:59.301Z,95996.59
2023-03-23T21:44:26.362Z,96007.78
2023-03-23T21:46:54.523Z,96003.66
2023-03-23T21:49:21.685Z,95998.34
2023-03-23T21:51:49.472Z,95997.31
2023-03-23T21:54:16.360Z,95989.81
2023-03-23T21:56:43.344Z,95993.03
2023-03-23T21:59:10.240Z,95983.69
2023-03-23T22:01:37.479Z,95981.28
2023-03-23T22:04:05.158Z,95982.81
2023-03-23T22:06:34.344Z,95979.06
2023-03-23T22:09:05.214Z,95985.41
2023-03-23T22:11:32.790Z,95979.06
2023-03-23T22:14:00.750Z,95969.88
2023-03-23T22:16:28.424Z,95976.78
2023-03-23T22:18:59.597Z,95965.16
2023-03-23T22:21:29.096Z,95956.97
2023-03-23T22:23:58.652Z,95957.91
2023-03-23T22:26:27.719Z,95949.97
2023-03-23T22:28:55.482Z,95954.63
2023-03-23T22:31:29.473Z,95941.06
2023-03-23T22:33:57.371Z,95937.59
2023-03-23T22:36:26.723Z,95945.75
2023-03-23T22:38:55.559Z,95939.34
2023-03-23T22:41:35.741Z,95925.03
2023-03-23T22:44:04.397Z,95928.97
2023-03-23T22:46:31.729Z,95941.53
2023-03-23T22:48:58.562Z,95925.03
2023-03-23T22:51:25.723Z,95925.69
2023-03-23T22:53:52.658Z,95922.31
2023-03-23T22:56:20.371Z,95915.75
2023-03-23T22:58:47.457Z,95911.72
2023-03-23T23:01:21.518Z,95912.59
2023-03-23T23:03:49.114Z,95920.00
2023-03-23T23:06:18.010Z,95913.09
2023-03-23T23:08:46.734Z,95909.41
2023-03-23T23:11:16.603Z,95912.81
2023-03-23T23:13:44.288Z,95908.81
2023-03-23T23:16:13.072Z,95899.50
2023-03-23T23:18:40.688Z,95906.09
2023-03-23T23:21:14.285Z,95907.59
2023-03-23T23:23:41.537Z,95896.47
2023-03-23T23:26:09.421Z,95894.66
2023-03-23T23:28:36.877Z,95891.38
2023-03-23T23:31:04.206Z,95893.06
2023-03-23T23:33:31.101Z,95894.81
2023-03-23T23:35:58.468Z,95887.81
2023-03-23T23:38:26.053Z,95890.94
2023-03-23T23:40:52.986Z,95882.91
2023-03-23T23:43:19.893Z,95875.69
2023-03-23T23:45:46.792Z,95868.94
2023-03-23T23:48:13.774Z,95866.16
2023-03-23T23:50:40.869Z,95874.81
2023-03-23T23:53:09.892Z,95867.03
2023-03-23T23:55:39.304Z,95862.78
2023-03-23T23:58:06.258Z,95865.88
